BGSFBGGH

Guest
Details From BGSF - Kangerlussuaq
To BGGH - Nuuk
Flight Number -
Tags decoded
Created
Modified
Stats Distance 376 nm / 697 km
Max Altitude 0 ft / 0 m
Waypoints 4
Social Downloads 0
Likes 0
Share VATSIM

Download

Looking for another format? Having issues loading an existing format? Contact us
Advertisement - Login to hide

Notes

Requested: BGSF KU MA SUBUD EDERI HB KUKAK DOBOB ABIBA DA BGGH Unmatched points: SUBUD EDERI KUKAK DOBOB ABIBA

Route

BGSF MA HB BGGH

ID Type Via Altitude Latitude Longitude Leg Dist Tot Dist Heading (true) Name
O BGSF APT - 0 ft / 0 m 67.01160˚ -50.71472˚ - 0 nm - Kangerlussuaq
MA NDB - 0 ft / 0 m 65.40667˚ -52.92100˚ 110 nm 110 nm 210° / 208° MANIITSOQ NDB
HB NDB - 0 ft / 0 m 66.93583˚ -53.69917˚ 93 nm 203 nm 349° / 348° HOLSTEINSBORG NDB
O BGGH APT - 0 ft / 0 m 64.19302˚ -51.67645˚ 172 nm 376 nm 162° / 164° Nuuk

Altitude Profile

Advertisement - Login to hide

Weather


0- 5 10 15 20 25 30 35+ Temperature / ° C

Clouds and Precipitation
Forecast for 2018-01-18 00:00 UTC. Updated an hour ago

Ground ~20,000 ft ~40,000 ft Winds

BGSF

Details ICAO BGSF (SFJ)
Name Kangerlussuaq
Region Greenland
Timezone America/Godthab (UTC-3.0)
Stats Elevation 165 ft / 50 m (AMSL)
Location 67.011605° -50.714721°
Runways 2
Magnetic Variation 28.997° W

METAR

BGSF 172350Z AUTO 05008KT 9999NDV NCD M31/M34 Q1009

Decode

TAF

TAF BGSF 171723Z 1718/1824 06008KT 9999 FEW200= TAF GMTA 171700Z 1718/1824 22004KT CAVOK BECMG 1810/1812 SCT013

Decode

Departure Runways

ID Width Length Bearing (true) Bearing (mag) Surface Threshold Offset Overrun Length
09 197 ft / 60 m 9,169 ft / 2,795 m 61.57° 90.57° Asphalt 0 ft / 0 m 509 ft / 155 m
10 197 ft / 60 m 9,187 ft / 2,800 m 61.55° 90.55° Asphalt 0 ft / 0 m 0 ft / 0 m
27 197 ft / 60 m 9,169 ft / 2,795 m 241.63° 270.63° Asphalt 0 ft / 0 m 171 ft / 52 m
28 197 ft / 60 m 9,187 ft / 2,800 m 241.60° 270.60° Asphalt 0 ft / 0 m 0 ft / 0 m

BGGH

Details ICAO BGGH (GOH)
Name Nuuk
Region Greenland
Timezone America/Godthab (UTC-3.0)
Stats Elevation 283 ft / 86 m (AMSL)
Location 64.193021° -51.676454°
Runways 1
Magnetic Variation 26.985° W

METAR

BGGH 172350Z AUTO 08011KT 9999NDV FEW110/// M15/M17 Q1004

Decode

TAF

Not found

Destination Runways

ID Width Length Bearing (true) Bearing (mag) Surface Threshold Offset Overrun Length
05 98 ft / 30 m 3,113 ft / 949 m 18.44° 45.43° Asphalt 0 ft / 0 m 0 ft / 0 m
23 98 ft / 30 m 3,113 ft / 949 m 198.44° 225.43° Asphalt 0 ft / 0 m 0 ft / 0 m

Popular Alternatives